createdAt,value
2022-12-26T00:01:14.941Z,101473.78
2022-12-26T00:03:43.134Z,101477.50
2022-12-26T00:06:15.405Z,101487.06
2022-12-26T00:08:43.649Z,101489.56
2022-12-26T00:11:12.652Z,101484.78
2022-12-26T00:13:43.221Z,101489.56
2022-12-26T00:16:13.317Z,101498.88
2022-12-26T00:18:42.136Z,101491.00
2022-12-26T00:21:12.270Z,101489.06
2022-12-26T00:23:40.800Z,101500.31
2022-12-26T00:26:10.696Z,101496.84
2022-12-26T00:28:39.248Z,101497.16
2022-12-26T00:31:10.986Z,101502.41
2022-12-26T00:33:39.711Z,101500.81
2022-12-26T00:36:10.720Z,101503.28
2022-12-26T00:38:39.493Z,101502.25
2022-12-26T00:41:09.154Z,101498.22
2022-12-26T00:43:37.643Z,101493.72
2022-12-26T00:46:06.549Z,101498.41
2022-12-26T00:48:36.849Z,101505.28
2022-12-26T00:51:05.729Z,101504.53
2022-12-26T00:53:33.942Z,101501.16
2022-12-26T00:56:02.557Z,101502.91
2022-12-26T00:58:31.091Z,101498.63
2022-12-26T01:01:08.266Z,101505.00
2022-12-26T01:03:37.924Z,101505.81
2022-12-26T01:06:06.159Z,101506.53
2022-12-26T01:08:34.217Z,101508.84
2022-12-26T01:11:05.930Z,101512.44
2022-12-26T01:13:34.676Z,101507.69
2022-12-26T01:16:03.014Z,101512.88
2022-12-26T01:18:31.412Z,101510.13
2022-12-26T01:21:02.541Z,101505.75
2022-12-26T01:23:30.942Z,101507.19
2022-12-26T01:26:16.831Z,101502.91
2022-12-26T01:28:47.145Z,101514.75
2022-12-26T01:31:15.475Z,101521.22
2022-12-26T01:33:43.608Z,101514.50
2022-12-26T01:36:13.729Z,101503.19
2022-12-26T01:38:41.963Z,101518.69
2022-12-26T01:41:20.376Z,101514.19
2022-12-26T01:43:59.945Z,101512.91
2022-12-26T01:46:32.642Z,101501.25
2022-12-26T01:49:03.337Z,101505.53
2022-12-26T01:51:37.634Z,101510.94
2022-12-26T01:54:40.606Z,101505.28
2022-12-26T01:56:57.480Z,101503.91
2022-12-26T01:59:30.278Z,101511.31
2022-12-26T02:02:01.651Z,101508.78
2022-12-26T02:04:53.008Z,101525.84
2022-12-26T02:07:22.961Z,101527.88
2022-12-26T02:09:51.725Z,101523.88
2022-12-26T02:12:37.595Z,101532.41
2022-12-26T02:15:09.876Z,101545.75
2022-12-26T02:17:39.091Z,101544.59
2022-12-26T02:20:18.417Z,101545.59
2022-12-26T02:23:29.044Z,101551.03
2022-12-26T02:26:32.069Z,101548.63
2022-12-26T02:29:37.517Z,101554.66
2022-12-26T02:32:18.305Z,101549.41
2022-12-26T02:34:56.851Z,101533.34
2022-12-26T02:37:36.511Z,101541.09
2022-12-26T02:40:25.072Z,101543.09
2022-12-26T02:43:00.384Z,101540.91
2022-12-26T02:45:52.976Z,101538.25
2022-12-26T02:48:29.794Z,101531.09
2022-12-26T02:51:25.501Z,101536.97
2022-12-26T02:54:28.753Z,101529.25
2022-12-26T02:57:21.727Z,101550.09
2022-12-26T03:00:13.630Z,101539.25
2022-12-26T03:03:11.418Z,101540.16
2022-12-26T03:06:02.697Z,101550.03
2022-12-26T03:08:53.501Z,101549.91
2022-12-26T03:11:39.978Z,101543.56
2022-12-26T03:14:17.218Z,101536.72
2022-12-26T03:17:08.764Z,101545.56
2022-12-26T03:19:58.429Z,101551.66
2022-12-26T03:22:34.509Z,101555.66
2022-12-26T03:25:23.387Z,101546.22
2022-12-26T03:27:51.625Z,101546.44
2022-12-26T03:30:37.191Z,101546.19
2022-12-26T03:33:06.098Z,101538.47
2022-12-26T03:35:34.591Z,101537.91
2022-12-26T03:38:11.611Z,101539.59
2022-12-26T03:41:11.180Z,101532.38
2022-12-26T03:44:12.879Z,101538.59
2022-12-26T03:47:12.217Z,101535.94
2022-12-26T03:50:03.616Z,101530.41
2022-12-26T03:52:55.864Z,101531.00
2022-12-26T03:55:51.476Z,101532.50
2022-12-26T03:58:44.834Z,101533.41
2022-12-26T04:01:35.891Z,101530.41
2022-12-26T04:04:24.972Z,101527.75
2022-12-26T04:07:14.823Z,101545.16
2022-12-26T04:10:04.794Z,101545.75
2022-12-26T04:12:55.343Z,101549.28
2022-12-26T04:15:45.156Z,101547.75
2022-12-26T04:18:35.356Z,101544.28
2022-12-26T04:21:34.480Z,101555.06
2022-12-26T04:24:32.887Z,101549.41
2022-12-26T04:27:22.163Z,101560.22
2022-12-26T04:30:09.413Z,101553.31
2022-12-26T04:32:59.305Z,101554.22
2022-12-26T04:35:51.090Z,101555.59
2022-12-26T04:38:41.833Z,101549.13
2022-12-26T04:41:29.855Z,101547.28
2022-12-26T04:44:09.907Z,101563.31
2022-12-26T04:46:42.411Z,101561.94
2022-12-26T04:49:30.302Z,101558.94
2022-12-26T04:52:00.266Z,101564.06
2022-12-26T04:54:29.078Z,101569.38
2022-12-26T04:56:57.209Z,101578.34
2022-12-26T04:59:25.661Z,101581.44
2022-12-26T05:02:12.650Z,101575.38
2022-12-26T05:04:58.867Z,101584.44
2022-12-26T05:07:47.579Z,101591.94
2022-12-26T05:10:20.193Z,101602.03
2022-12-26T05:12:48.544Z,101601.97
2022-12-26T05:15:17.241Z,101604.56
2022-12-26T05:18:04.488Z,101597.59
2022-12-26T05:20:46.618Z,101604.44
2022-12-26T05:23:37.409Z,101602.94
2022-12-26T05:26:23.955Z,101611.91
2022-12-26T05:28:56.616Z,101615.28
2022-12-26T05:31:28.332Z,101616.22
2022-12-26T05:34:05.863Z,101615.03
2022-12-26T05:36:38.602Z,101616.06
2022-12-26T05:39:07.197Z,101620.22
2022-12-26T05:41:35.843Z,101617.00
2022-12-26T05:44:04.060Z,101621.47
2022-12-26T05:46:32.267Z,101626.22
2022-12-26T05:49:01.939Z,101633.63
2022-12-26T05:51:30.059Z,101631.06
2022-12-26T05:53:58.184Z,101621.94
2022-12-26T05:56:26.478Z,101619.41
2022-12-26T05:58:58.780Z,101624.13
2022-12-26T06:01:29.097Z,101630.84
2022-12-26T06:03:59.784Z,101627.94
2022-12-26T06:06:29.882Z,101623.34
2022-12-26T06:08:58.745Z,101630.72
2022-12-26T06:11:27.495Z,101631.28
2022-12-26T06:13:56.637Z,101623.13
2022-12-26T06:16:25.001Z,101622.19
2022-12-26T06:18:53.281Z,101627.94
2022-12-26T06:21:22.360Z,101616.88
2022-12-26T06:23:52.277Z,101616.44
2022-12-26T06:26:20.402Z,101619.41
2022-12-26T06:28:48.459Z,101627.50
2022-12-26T06:31:21.027Z,101631.28
2022-12-26T06:33:49.770Z,101629.56
2022-12-26T06:36:19.704Z,101626.22
2022-12-26T06:38:48.227Z,101637.19
2022-12-26T06:41:20.651Z,101633.16
2022-12-26T06:43:49.082Z,101633.16
2022-12-26T06:46:19.936Z,101641.44
2022-12-26T06:48:48.391Z,101633.91
2022-12-26T06:51:19.109Z,101628.69
2022-12-26T06:53:47.717Z,101631.69
2022-12-26T06:56:19.265Z,101618.75
2022-12-26T06:58:48.032Z,101636.84
2022-12-26T07:01:18.601Z,101644.44
2022-12-26T07:03:51.739Z,101648.03
2022-12-26T07:06:24.625Z,101638.50
2022-12-26T07:08:54.041Z,101650.38
2022-12-26T07:11:26.979Z,101654.00
2022-12-26T07:13:55.931Z,101655.81
2022-12-26T07:16:24.844Z,101658.28
2022-12-26T07:18:54.151Z,101661.38
2022-12-26T07:21:22.919Z,101662.63
2022-12-26T07:23:51.358Z,101648.13
2022-12-26T07:26:19.849Z,101648.50
2022-12-26T07:28:49.406Z,101648.66
2022-12-26T07:31:18.135Z,101652.88
2022-12-26T07:33:48.731Z,101655.66
2022-12-26T07:36:16.954Z,101664.13
2022-12-26T07:38:45.359Z,101672.03
2022-12-26T07:41:30.906Z,101671.50
2022-12-26T07:44:00.529Z,101669.34
2022-12-26T07:46:28.670Z,101675.31
2022-12-26T07:48:56.898Z,101675.13
2022-12-26T07:51:25.220Z,101685.91
2022-12-26T07:53:53.311Z,101678.19
2022-12-26T07:56:21.556Z,101680.84
2022-12-26T07:58:51.134Z,101683.78
2022-12-26T08:01:21.079Z,101688.88
2022-12-26T08:03:50.232Z,101682.16
2022-12-26T08:06:19.127Z,101684.03
2022-12-26T08:08:51.099Z,101685.06
2022-12-26T08:11:21.847Z,101686.41
2022-12-26T08:13:49.946Z,101684.00
2022-12-26T08:16:18.640Z,101673.88
2022-12-26T08:18:48.267Z,101672.31
2022-12-26T08:21:16.583Z,101689.19
2022-12-26T08:23:45.368Z,101689.22
2022-12-26T08:26:20.812Z,101688.44
2022-12-26T08:28:49.101Z,101681.53
2022-12-26T08:31:17.379Z,101681.72
2022-12-26T08:33:47.368Z,101675.88
2022-12-26T08:36:19.305Z,101676.72
2022-12-26T08:38:47.976Z,101669.81
2022-12-26T08:41:17.613Z,101658.88
2022-12-26T08:46:38.140Z,101651.44
2022-12-26T08:49:07.649Z,101643.47
2022-12-26T08:51:35.864Z,101640.81
2022-12-26T08:54:04.105Z,101641.59
2022-12-26T08:56:32.906Z,101641.34
2022-12-26T08:59:00.984Z,101652.34
2022-12-26T09:01:30.955Z,101650.78
2022-12-26T09:04:00.902Z,101648.69
2022-12-26T09:06:33.127Z,101636.91
2022-12-26T09:09:01.600Z,101640.53
2022-12-26T09:11:30.742Z,101635.78
2022-12-26T09:14:00.858Z,101630.38
2022-12-26T09:16:37.462Z,101613.06
2022-12-26T09:19:07.602Z,101612.81
2022-12-26T09:21:37.133Z,101613.31
2022-12-26T09:24:07.687Z,101609.28
2022-12-26T09:26:35.892Z,101610.06
2022-12-26T09:29:04.313Z,101598.94
2022-12-26T09:31:34.297Z,101597.66
2022-12-26T09:34:03.675Z,101600.03
2022-12-26T09:36:33.854Z,101593.97
2022-12-26T09:39:03.500Z,101591.59
2022-12-26T09:41:51.043Z,101600.41
2022-12-26T09:44:26.573Z,101588.88
2022-12-26T09:47:07.097Z,101596.31
2022-12-26T09:49:38.687Z,101605.75
2022-12-26T09:52:13.391Z,101587.06
2022-12-26T09:54:49.094Z,101594.84
2022-12-26T09:57:19.940Z,101586.25
2022-12-26T09:59:55.786Z,101588.88
2022-12-26T10:02:27.540Z,101595.84
2022-12-26T10:04:56.223Z,101588.03
2022-12-26T10:07:32.989Z,101592.03
2022-12-26T10:10:10.623Z,101584.31
2022-12-26T10:12:46.506Z,101590.72
2022-12-26T10:15:29.383Z,101581.91
2022-12-26T10:18:07.165Z,101586.72
2022-12-26T10:20:46.847Z,101585.91
2022-12-26T10:23:31.795Z,101589.94
2022-12-26T10:26:07.660Z,101585.09
2022-12-26T10:28:40.540Z,101578.72
2022-12-26T10:31:17.189Z,101569.69
2022-12-26T10:33:50.847Z,101556.06
2022-12-26T10:36:27.773Z,101562.19
2022-12-26T10:38:59.705Z,101561.69
2022-12-26T10:41:35.758Z,101561.91
2022-12-26T10:44:03.992Z,101570.69
2022-12-26T10:46:48.146Z,101558.97
2022-12-26T10:49:21.930Z,101572.59
2022-12-26T10:51:51.909Z,101571.22
2022-12-26T10:54:20.520Z,101557.31
2022-12-26T10:56:52.166Z,101560.53
2022-12-26T10:59:23.351Z,101565.56
2022-12-26T11:01:52.080Z,101557.34
2022-12-26T11:05:10.416Z,101565.03
2022-12-26T11:07:13.921Z,101556.78
2022-12-26T11:09:45.607Z,101549.34
2022-12-26T11:12:25.810Z,101550.69
2022-12-26T11:14:59.523Z,101545.59
2022-12-26T11:17:30.620Z,101534.13
2022-12-26T11:20:23.912Z,101529.34
2022-12-26T11:22:52.731Z,101522.16
2022-12-26T11:25:24.345Z,101525.34
2022-12-26T11:27:56.115Z,101513.31
2022-12-26T11:30:27.793Z,101510.09
2022-12-26T11:33:14.142Z,101509.84
2022-12-26T11:35:55.753Z,101521.59
2022-12-26T11:38:44.041Z,101509.56
2022-12-26T11:41:36.607Z,101508.25
2022-12-26T11:44:23.604Z,101503.97
2022-12-26T11:46:56.625Z,101504.81
2022-12-26T11:49:30.195Z,101498.66
2022-12-26T11:52:00.165Z,101500.81
2022-12-26T11:54:34.669Z,101501.88
2022-12-26T11:57:14.476Z,101501.59
2022-12-26T11:59:44.364Z,101502.91
2022-12-26T12:02:26.975Z,101499.72
2022-12-26T12:04:58.953Z,101500.25
2022-12-26T12:07:55.899Z,101493.81
2022-12-26T12:10:52.423Z,101502.09
2022-12-26T12:13:37.852Z,101505.56
2022-12-26T12:16:25.883Z,101498.63
2022-12-26T12:19:02.367Z,101494.91
2022-12-26T12:21:41.434Z,101498.13
2022-12-26T12:24:37.919Z,101498.13
2022-12-26T12:27:14.716Z,101498.63
2022-12-26T12:30:15.396Z,101498.09
2022-12-26T12:32:57.314Z,101507.69
2022-12-26T12:35:35.820Z,101506.97
2022-12-26T12:38:24.659Z,101503.47
2022-12-26T12:41:06.185Z,101504.56
2022-12-26T12:43:44.548Z,101505.63
2022-12-26T12:46:23.273Z,101512.00
2022-12-26T12:49:06.705Z,101515.72
2022-12-26T12:51:43.867Z,101511.72
2022-12-26T12:54:34.382Z,101505.56
2022-12-26T12:57:08.158Z,101502.91
2022-12-26T12:59:51.940Z,101500.50
2022-12-26T13:02:27.249Z,101506.13
2022-12-26T13:05:05.916Z,101497.28
2022-12-26T13:07:43.320Z,101497.56
2022-12-26T13:10:20.821Z,101496.50
2022-12-26T13:12:50.415Z,101496.75
2022-12-26T13:15:28.934Z,101494.59
2022-12-26T13:18:01.762Z,101504.47
2022-12-26T13:20:39.507Z,101501.81
2022-12-26T13:23:31.417Z,101498.03
2022-12-26T13:26:10.724Z,101496.16
2022-12-26T13:28:47.550Z,101495.38
2022-12-26T13:31:15.829Z,101492.97
2022-12-26T13:33:44.656Z,101490.03
2022-12-26T13:36:42.454Z,101496.69
2022-12-26T13:39:39.226Z,101498.53
2022-12-26T13:42:38.567Z,101493.19
2022-12-26T13:45:47.681Z,101491.31
2022-12-26T13:49:08.269Z,101491.81
2022-12-26T13:51:57.163Z,101490.97
2022-12-26T13:54:27.521Z,101500.59
2022-12-26T13:57:22.046Z,101493.63
2022-12-26T14:00:02.957Z,101489.59
2022-12-26T14:03:24.286Z,101498.88
2022-12-26T14:06:16.922Z,101489.25
2022-12-26T14:09:05.521Z,101494.56
2022-12-26T14:11:47.752Z,101500.41
2022-12-26T14:14:28.426Z,101486.53
2022-12-26T14:17:07.810Z,101487.59
2022-12-26T14:19:48.132Z,101483.06
2022-12-26T14:22:24.776Z,101481.16
2022-12-26T14:25:06.014Z,101476.59
2022-12-26T14:27:42.023Z,101473.69
2022-12-26T14:30:23.948Z,101471.78
2022-12-26T14:33:20.001Z,101465.88
2022-12-26T14:35:59.096Z,101460.78
2022-12-26T14:38:39.057Z,101458.31
2022-12-26T14:41:33.018Z,101461.22
2022-12-26T14:44:11.486Z,101468.13
2022-12-26T14:47:00.284Z,101467.00
2022-12-26T14:49:39.849Z,101457.69
2022-12-26T14:52:40.916Z,101458.44
2022-12-26T14:55:41.081Z,101456.31
2022-12-26T14:58:42.657Z,101463.78
2022-12-26T15:01:45.348Z,101456.56
2022-12-26T15:04:32.084Z,101445.06
2022-12-26T15:07:21.246Z,101453.91
2022-12-26T15:10:13.014Z,101461.91
2022-12-26T15:13:20.593Z,101452.56
2022-12-26T15:16:05.117Z,101456.38
2022-12-26T15:19:14.895Z,101447.88
2022-12-26T15:22:16.824Z,101452.59
2022-12-26T15:25:20.051Z,101448.13
2022-12-26T15:28:39.141Z,101455.72
2022-12-26T15:31:27.836Z,101450.84
2022-12-26T15:34:03.851Z,101456.75
2022-12-26T15:36:44.762Z,101450.56
2022-12-26T15:39:25.981Z,101458.97
2022-12-26T15:42:04.196Z,101455.53
2022-12-26T15:44:42.387Z,101445.38
2022-12-26T15:47:21.640Z,101453.31
2022-12-26T15:50:04.736Z,101451.50
2022-12-26T15:52:44.958Z,101447.03
2022-12-26T15:55:47.179Z,101452.56
2022-12-26T15:58:35.693Z,101458.97
2022-12-26T16:01:05.372Z,101454.72
2022-12-26T16:03:42.812Z,101460.59
2022-12-26T16:06:32.559Z,101460.88
2022-12-26T16:09:16.467Z,101463.09
2022-12-26T16:11:51.500Z,101459.59
2022-12-26T16:14:29.163Z,101464.91
2022-12-26T16:17:11.549Z,101463.88
2022-12-26T16:19:42.540Z,101458.53
2022-12-26T16:22:35.553Z,101461.22
2022-12-26T16:25:04.162Z,101469.13
2022-12-26T16:27:32.452Z,101458.91
2022-12-26T16:30:11.294Z,101460.00
2022-12-26T16:32:42.828Z,101459.69
2022-12-26T16:35:20.743Z,101461.22
2022-12-26T16:37:50.058Z,101457.50
2022-12-26T16:40:22.368Z,101454.25
2022-12-26T16:43:03.244Z,101451.28
2022-12-26T16:45:34.672Z,101455.78
2022-12-26T16:48:06.507Z,101449.06
2022-12-26T16:50:38.494Z,101452.88
2022-12-26T16:53:14.408Z,101454.56
2022-12-26T16:55:45.861Z,101445.81
2022-12-26T16:58:26.268Z,101454.34
2022-12-26T17:01:08.429Z,101453.31
2022-12-26T17:03:41.605Z,101456.25
2022-12-26T17:06:15.551Z,101454.16
2022-12-26T17:08:46.356Z,101455.81
2022-12-26T17:11:15.080Z,101448.94
2022-12-26T17:13:51.192Z,101447.09
2022-12-26T17:16:19.540Z,101439.88
2022-12-26T17:18:50.126Z,101435.16
2022-12-26T17:21:23.420Z,101438.41
2022-12-26T17:24:21.406Z,101428.28
2022-12-26T17:26:54.562Z,101428.06
2022-12-26T17:29:48.043Z,101427.03
2022-12-26T17:32:21.252Z,101412.88
2022-12-26T17:34:49.865Z,101420.09
2022-12-26T17:37:23.381Z,101424.66
2022-12-26T17:40:02.564Z,101419.84
2022-12-26T17:42:45.799Z,101415.56
2022-12-26T17:45:17.664Z,101409.72
2022-12-26T17:47:46.011Z,101413.47
2022-12-26T17:50:14.698Z,101405.97
2022-12-26T17:52:44.479Z,101411.31
2022-12-26T17:55:18.008Z,101409.44
2022-12-26T17:57:46.170Z,101394.75
2022-12-26T18:00:19.594Z,101396.88
2022-12-26T18:02:48.072Z,101395.31
2022-12-26T18:05:17.427Z,101394.25
2022-12-26T18:07:48.637Z,101388.88
2022-12-26T18:10:21.261Z,101395.78
2022-12-26T18:12:50.533Z,101395.00
2022-12-26T18:15:20.071Z,101387.81
2022-12-26T18:17:50.500Z,101385.41
2022-12-26T18:20:20.962Z,101384.84
2022-12-26T18:22:51.451Z,101383.50
2022-12-26T18:25:21.555Z,101389.38
2022-12-26T18:27:49.830Z,101384.53
2022-12-26T18:30:20.297Z,101385.38
2022-12-26T18:32:50.933Z,101377.53
2022-12-26T18:35:19.569Z,101386.38
2022-12-26T18:37:52.661Z,101384.78
2022-12-26T18:40:32.243Z,101388.78
2022-12-26T18:43:00.571Z,101382.13
2022-12-26T18:45:28.832Z,101376.03
2022-12-26T18:47:57.413Z,101382.19
2022-12-26T18:50:26.208Z,101373.94
2022-12-26T18:52:55.865Z,101388.34
2022-12-26T18:55:25.390Z,101387.81
2022-12-26T18:57:54.225Z,101392.91
2022-12-26T19:00:23.728Z,101387.78
2022-12-26T19:02:52.837Z,101378.72
2022-12-26T19:05:22.662Z,101369.78
2022-12-26T19:07:51.359Z,101365.03
2022-12-26T19:10:23.216Z,101366.13
2022-12-26T19:12:51.556Z,101353.34
2022-12-26T19:15:20.329Z,101347.47
2022-12-26T19:17:48.571Z,101357.34
2022-12-26T19:20:20.262Z,101346.16
2022-12-26T19:22:49.067Z,101339.50
2022-12-26T19:25:18.760Z,101340.59
2022-12-26T19:27:49.309Z,101339.00
2022-12-26T19:30:18.817Z,101332.59
2022-12-26T19:32:47.111Z,101329.66
2022-12-26T19:35:16.124Z,101326.19
2022-12-26T19:37:44.344Z,101324.06
2022-12-26T19:40:18.354Z,101322.16
2022-12-26T19:42:50.909Z,101317.34
2022-12-26T19:45:19.085Z,101310.91
2022-12-26T19:47:47.286Z,101311.47
2022-12-26T19:50:15.555Z,101314.66
2022-12-26T19:52:43.687Z,101302.91
2022-12-26T19:55:13.142Z,101311.44
2022-12-26T19:57:41.325Z,101315.41
2022-12-26T20:00:12.419Z,101314.56
2022-12-26T20:02:40.820Z,101319.84
2022-12-26T20:05:09.737Z,101313.66
2022-12-26T20:07:37.828Z,101311.78
2022-12-26T20:10:06.926Z,101303.78
2022-12-26T20:12:35.219Z,101303.22
2022-12-26T20:15:03.463Z,101311.19
2022-12-26T20:17:33.060Z,101309.00
2022-12-26T20:20:01.315Z,101303.91
2022-12-26T20:22:29.532Z,101307.34
2022-12-26T20:24:57.747Z,101311.03
2022-12-26T20:27:25.979Z,101305.66
2022-12-26T20:29:54.252Z,101302.44
2022-12-26T20:32:22.327Z,101302.13
2022-12-26T20:34:51.891Z,101294.63
2022-12-26T20:37:20.019Z,101289.53
2022-12-26T20:39:48.115Z,101290.56
2022-12-26T20:42:17.129Z,101289.47
2022-12-26T20:44:45.558Z,101291.97
2022-12-26T20:47:14.831Z,101291.13
2022-12-26T20:49:42.944Z,101291.13
2022-12-26T20:52:12.435Z,101291.66
2022-12-26T20:54:40.563Z,101279.94
2022-12-26T20:57:08.643Z,101279.31
2022-12-26T20:59:37.517Z,101276.41
2022-12-26T21:02:06.060Z,101270.88
2022-12-26T21:04:34.347Z,101262.75
2022-12-26T21:07:02.541Z,101267.50
2022-12-26T21:09:32.096Z,101268.66
2022-12-26T21:12:00.250Z,101258.81
2022-12-26T21:14:28.511Z,101254.84
2022-12-26T21:16:58.729Z,101257.25
2022-12-26T21:19:29.395Z,101258.56
2022-12-26T21:21:58.362Z,101251.91
2022-12-26T21:24:28.830Z,101250.03
2022-12-26T21:26:58.536Z,101246.31
2022-12-26T21:29:29.013Z,101240.69
2022-12-26T21:31:58.040Z,101235.34
2022-12-26T21:34:27.834Z,101241.72
2022-12-26T21:37:13.817Z,101229.44
2022-12-26T21:39:42.841Z,101227.81
2022-12-26T21:42:12.700Z,101226.50
2022-12-26T21:44:40.860Z,101221.50
2022-12-26T21:47:09.062Z,101227.38
2022-12-26T21:49:37.526Z,101206.91
2022-12-26T21:52:06.857Z,101202.41
2022-12-26T21:54:52.590Z,101205.34
2022-12-26T21:57:22.591Z,101204.03
2022-12-26T22:00:00.135Z,101194.50
2022-12-26T22:02:48.304Z,101198.84
2022-12-26T22:05:16.975Z,101201.50
2022-12-26T22:07:45.339Z,101198.31
2022-12-26T22:10:34.817Z,101195.13
2022-12-26T22:13:06.592Z,101191.91
2022-12-26T22:15:52.562Z,101186.63
2022-12-26T22:18:21.254Z,101187.69
2022-12-26T22:20:49.506Z,101182.09
2022-12-26T22:23:17.675Z,101179.16
2022-12-26T22:25:53.153Z,101176.22
2022-12-26T22:28:23.513Z,101173.28
2022-12-26T22:30:52.507Z,101167.69
2022-12-26T22:33:21.412Z,101166.34
2022-12-26T22:35:49.815Z,101160.50
2022-12-26T22:38:17.987Z,101159.69
2022-12-26T22:40:54.407Z,101161.28
2022-12-26T22:43:24.716Z,101156.22
2022-12-26T22:45:53.476Z,101149.84
2022-12-26T22:48:22.457Z,101146.09
2022-12-26T22:50:53.709Z,101137.00
2022-12-26T22:53:24.702Z,101147.44
2022-12-26T22:55:57.130Z,101136.47
2022-12-26T22:58:26.896Z,101128.22
2022-12-26T23:00:55.244Z,101124.47
2022-12-26T23:03:24.404Z,101125.81
2022-12-26T23:05:53.588Z,101122.63
2022-12-26T23:08:24.534Z,101117.81
2022-12-26T23:10:53.684Z,101125.56
2022-12-26T23:13:22.265Z,101133.28
2022-12-26T23:16:02.621Z,101125.81
2022-12-26T23:18:54.344Z,101123.69
2022-12-26T23:21:54.589Z,101129.03
2022-12-26T23:24:24.917Z,101118.91
2022-12-26T23:26:54.509Z,101115.16
2022-12-26T23:29:42.836Z,101121.81
2022-12-26T23:32:12.681Z,101115.44
2022-12-26T23:34:40.772Z,101119.16
2022-12-26T23:37:09.127Z,101118.06
2022-12-26T23:39:37.230Z,101121.53
2022-12-26T23:42:05.514Z,101121.00
2022-12-26T23:44:33.675Z,101116.22
2022-12-26T23:47:01.845Z,101108.47
2022-12-26T23:49:31.509Z,101114.06
2022-12-26T23:51:59.601Z,101114.59
2022-12-26T23:54:27.711Z,101103.13
2022-12-26T23:56:55.863Z,101102.06
2022-12-26T23:59:24.369Z,101112.19
